createdAt,value
2022-12-15T00:00:01.792Z,72.31
2022-12-15T00:02:47.346Z,72.49
2022-12-15T00:05:33.172Z,72.27
2022-12-15T00:08:26.929Z,73.01
2022-12-15T00:11:12.667Z,72.76
2022-12-15T00:14:00.094Z,72.56
2022-12-15T00:16:45.447Z,72.35
2022-12-15T00:19:30.813Z,71.84
2022-12-15T00:22:16.088Z,71.52
2022-12-15T00:25:03.095Z,71.03
2022-12-15T00:27:48.567Z,71.31
2022-12-15T00:30:34.134Z,71.31
2022-12-15T00:33:19.654Z,71.06
2022-12-15T00:36:05.085Z,70.54
2022-12-15T00:38:43.986Z,70.57
2022-12-15T00:41:15.328Z,70.38
2022-12-15T00:43:44.034Z,70.47
2022-12-15T00:46:29.332Z,70.16
2022-12-15T00:48:57.511Z,69.66
2022-12-15T00:51:43.371Z,69.95
2022-12-15T00:54:29.248Z,70.13
2022-12-15T00:57:16.171Z,68.43
2022-12-15T01:00:01.771Z,69.27
2022-12-15T01:02:46.925Z,68.70
2022-12-15T01:05:32.586Z,69.39
2022-12-15T01:08:18.416Z,68.72
2022-12-15T01:11:03.555Z,68.32
2022-12-15T01:13:50.119Z,68.59
2022-12-15T01:16:36.093Z,68.62
2022-12-15T01:19:21.601Z,68.61
2022-12-15T01:21:50.125Z,68.25
2022-12-15T01:24:18.277Z,68.32
2022-12-15T01:26:46.353Z,68.44
2022-12-15T01:29:15.970Z,68.44
2022-12-15T01:31:44.382Z,68.67
2022-12-15T01:34:22.552Z,69.01
2022-12-15T01:36:50.388Z,69.55
2022-12-15T01:39:18.242Z,69.29
2022-12-15T01:41:45.226Z,69.57
2022-12-15T01:44:19.402Z,68.72
2022-12-15T01:46:50.527Z,68.81
2022-12-15T01:49:23.226Z,69.31
2022-12-15T01:51:56.896Z,68.90
2022-12-15T01:54:30.264Z,69.05
2022-12-15T01:57:02.034Z,69.34
2022-12-15T01:59:37.058Z,69.11
2022-12-15T02:02:05.789Z,69.57
2022-12-15T02:04:34.839Z,69.42
2022-12-15T02:07:02.967Z,69.33
2022-12-15T02:09:31.695Z,68.87
2022-12-15T02:12:03.311Z,70.02
2022-12-15T02:14:49.869Z,69.91
2022-12-15T02:17:28.482Z,69.97
2022-12-15T02:20:35.056Z,70.02
2022-12-15T02:23:50.318Z,70.63
2022-12-15T02:26:59.226Z,70.14
2022-12-15T02:29:53.913Z,70.31
2022-12-15T02:32:27.907Z,70.87
2022-12-15T02:35:03.324Z,70.28
2022-12-15T02:37:34.385Z,70.45
2022-12-15T02:40:02.962Z,69.43
2022-12-15T02:42:34.193Z,69.54
2022-12-15T02:45:06.660Z,69.43
2022-12-15T02:47:46.246Z,69.81
2022-12-15T02:50:43.029Z,69.54
2022-12-15T02:53:25.275Z,69.45
2022-12-15T02:56:05.442Z,69.35
2022-12-15T02:58:40.053Z,69.13
2022-12-15T03:01:16.181Z,69.58
2022-12-15T03:03:47.865Z,68.99
2022-12-15T03:06:17.356Z,69.07
2022-12-15T03:08:45.438Z,69.46
2022-12-15T03:11:13.532Z,68.80
2022-12-15T03:13:41.628Z,69.47
2022-12-15T03:16:09.746Z,68.76
2022-12-15T03:18:38.253Z,68.95
2022-12-15T03:21:07.687Z,69.27
2022-12-15T03:23:35.702Z,69.59
2022-12-15T03:26:03.809Z,69.61
2022-12-15T03:28:31.702Z,70.04
2022-12-15T03:30:59.878Z,69.32
2022-12-15T03:33:28.307Z,69.47
2022-12-15T03:35:56.634Z,69.72
2022-12-15T03:38:26.099Z,69.63
2022-12-15T03:40:54.102Z,69.30
2022-12-15T03:43:21.978Z,68.75
2022-12-15T03:45:50.325Z,68.65
2022-12-15T03:48:18.735Z,68.84
2022-12-15T03:50:49.022Z,68.68
2022-12-15T03:53:17.016Z,69.98
2022-12-15T03:55:46.581Z,70.61
2022-12-15T03:58:14.554Z,70.32
2022-12-15T04:00:44.984Z,70.44
2022-12-15T04:03:13.349Z,70.01
2022-12-15T04:05:41.401Z,70.25
2022-12-15T04:08:09.481Z,69.48
2022-12-15T04:10:37.413Z,70.31
2022-12-15T04:13:08.879Z,70.21
2022-12-15T04:15:38.509Z,69.86
2022-12-15T04:18:10.374Z,69.70
2022-12-15T04:20:38.970Z,69.82
2022-12-15T04:23:08.059Z,70.22
2022-12-15T04:25:54.371Z,70.58
2022-12-15T04:28:41.553Z,71.10
2022-12-15T04:31:29.004Z,70.64
2022-12-15T04:34:17.278Z,70.51
2022-12-15T04:37:05.364Z,71.12
2022-12-15T04:39:52.786Z,71.39
2022-12-15T04:42:38.336Z,71.13
2022-12-15T04:45:27.643Z,71.05
2022-12-15T04:48:12.678Z,72.74
2022-12-15T04:50:58.333Z,74.32
2022-12-15T04:53:43.786Z,74.91
2022-12-15T04:56:30.535Z,74.77
2022-12-15T04:59:15.744Z,74.74
2022-12-15T05:02:02.727Z,74.45
2022-12-15T05:04:48.598Z,74.93
2022-12-15T05:07:34.184Z,74.67
2022-12-15T05:10:19.979Z,74.45
2022-12-15T05:13:05.598Z,73.99
2022-12-15T05:15:52.211Z,73.32
2022-12-15T05:18:39.613Z,74.04
2022-12-15T05:21:25.574Z,74.53
2022-12-15T05:24:11.148Z,73.91
2022-12-15T05:26:56.913Z,74.10
2022-12-15T05:29:42.212Z,74.09
2022-12-15T05:32:11.900Z,73.99
2022-12-15T05:34:41.185Z,74.53
2022-12-15T05:37:09.287Z,74.44
2022-12-15T05:39:37.361Z,74.23
2022-12-15T05:42:05.653Z,73.98
2022-12-15T05:44:33.510Z,73.78
2022-12-15T05:47:01.637Z,74.16
2022-12-15T05:49:29.549Z,74.64
2022-12-15T05:51:58.891Z,74.80
2022-12-15T05:54:26.832Z,75.10
2022-12-15T05:56:54.618Z,74.63
2022-12-15T05:59:22.688Z,74.66
2022-12-15T06:01:50.603Z,74.80
2022-12-15T06:04:18.560Z,74.88
2022-12-15T06:06:46.493Z,75.28
2022-12-15T06:09:15.982Z,75.18
2022-12-15T06:11:46.016Z,76.10
2022-12-15T06:14:19.467Z,75.87
2022-12-15T06:16:51.179Z,75.60
2022-12-15T06:19:20.165Z,75.58
2022-12-15T06:21:47.988Z,74.64
2022-12-15T06:24:17.212Z,75.00
2022-12-15T06:26:45.098Z,74.52
2022-12-15T06:29:14.383Z,74.49
2022-12-15T06:31:43.943Z,74.54
2022-12-15T06:34:14.348Z,73.62
2022-12-15T06:36:42.369Z,73.43
2022-12-15T06:39:13.015Z,73.87
2022-12-15T06:41:43.149Z,74.48
2022-12-15T06:44:14.400Z,74.25
2022-12-15T06:46:42.895Z,73.97
2022-12-15T06:49:10.853Z,73.96
2022-12-15T06:51:39.525Z,74.04
2022-12-15T06:54:07.594Z,74.72
2022-12-15T06:56:37.078Z,74.76
2022-12-15T06:59:08.382Z,74.59
2022-12-15T07:01:36.904Z,74.71
2022-12-15T07:04:05.791Z,74.41
2022-12-15T07:06:37.576Z,74.81
2022-12-15T07:09:08.330Z,73.77
2022-12-15T07:11:36.725Z,73.47
2022-12-15T07:14:06.155Z,73.75
2022-12-15T07:16:34.685Z,74.06
2022-12-15T07:19:02.726Z,73.51
2022-12-15T07:21:31.782Z,74.28
2022-12-15T07:24:00.521Z,73.84
2022-12-15T07:26:29.178Z,73.81
2022-12-15T07:28:57.095Z,73.81
2022-12-15T07:31:26.366Z,73.65
2022-12-15T07:33:55.074Z,74.25
2022-12-15T07:36:23.162Z,73.47
2022-12-15T07:38:51.886Z,73.46
2022-12-15T07:41:21.054Z,74.23
2022-12-15T07:43:49.276Z,74.10
2022-12-15T07:46:17.403Z,73.95
2022-12-15T07:48:50.186Z,74.41
2022-12-15T07:51:21.094Z,73.56
2022-12-15T07:53:50.023Z,72.99
2022-12-15T07:56:19.168Z,72.76
2022-12-15T07:58:47.223Z,73.15
2022-12-15T08:01:16.393Z,72.58
2022-12-15T08:03:45.137Z,72.17
2022-12-15T08:06:16.340Z,72.06
2022-12-15T08:08:50.802Z,71.64
2022-12-15T08:11:20.436Z,72.16
2022-12-15T08:14:02.724Z,71.78
2022-12-15T08:16:34.634Z,71.66
2022-12-15T08:19:02.861Z,71.88
2022-12-15T08:21:32.356Z,72.28
2022-12-15T08:24:01.926Z,72.90
2022-12-15T08:26:31.044Z,72.78
2022-12-15T08:29:24.387Z,72.73
2022-12-15T08:31:50.968Z,72.74
2022-12-15T08:34:19.027Z,72.76
2022-12-15T08:36:48.369Z,72.76
2022-12-15T08:39:16.572Z,71.74
2022-12-15T08:41:44.893Z,71.26
2022-12-15T08:44:12.832Z,70.86
2022-12-15T08:46:40.984Z,70.50
2022-12-15T08:49:09.262Z,70.72
2022-12-15T08:51:37.893Z,70.65
2022-12-15T08:54:07.201Z,69.97
2022-12-15T08:56:36.749Z,70.09
2022-12-15T08:59:04.851Z,70.82
2022-12-15T09:01:33.414Z,70.31
2022-12-15T09:04:02.278Z,70.23
2022-12-15T09:06:35.285Z,70.37
2022-12-15T09:09:05.654Z,69.31
2022-12-15T09:11:35.571Z,69.72
2022-12-15T09:14:03.845Z,69.49
2022-12-15T09:16:31.992Z,68.91
2022-12-15T09:19:01.107Z,69.05
2022-12-15T09:21:32.000Z,69.13
2022-12-15T09:24:02.214Z,69.08
2022-12-15T09:26:32.488Z,68.87
2022-12-15T09:29:02.946Z,68.15
2022-12-15T09:31:33.470Z,68.49
2022-12-15T09:34:02.583Z,68.58
2022-12-15T09:36:32.615Z,68.40
2022-12-15T09:39:01.974Z,68.09
2022-12-15T09:41:32.148Z,68.68
2022-12-15T09:44:05.268Z,68.75
2022-12-15T09:46:50.240Z,69.11
2022-12-15T09:49:26.407Z,68.24
2022-12-15T09:52:01.028Z,69.70
2022-12-15T09:54:33.404Z,70.13
2022-12-15T09:57:06.361Z,69.75
2022-12-15T09:59:43.434Z,70.59
2022-12-15T10:02:30.434Z,69.81
2022-12-15T10:05:07.098Z,69.95
2022-12-15T10:07:42.272Z,70.48
2022-12-15T10:10:18.930Z,71.79
2022-12-15T10:12:59.903Z,72.12
2022-12-15T10:15:37.303Z,73.45
2022-12-15T10:18:12.835Z,72.98
2022-12-15T10:20:41.329Z,73.70
2022-12-15T10:23:15.359Z,73.21
2022-12-15T10:25:51.485Z,74.71
2022-12-15T10:28:51.348Z,74.11
2022-12-15T10:31:32.804Z,73.86
2022-12-15T10:34:23.348Z,74.29
2022-12-15T10:36:54.850Z,74.69
2022-12-15T10:39:24.175Z,73.59
2022-12-15T10:42:12.522Z,74.79
2022-12-15T10:44:42.743Z,74.63
2022-12-15T10:47:19.015Z,75.07
2022-12-15T10:49:48.988Z,74.27
2022-12-15T10:52:24.469Z,75.05
2022-12-15T10:54:56.556Z,75.15
2022-12-15T10:57:29.118Z,75.38
2022-12-15T10:59:59.952Z,75.20
2022-12-15T11:02:36.832Z,74.47
2022-12-15T11:05:11.172Z,74.29
2022-12-15T11:07:43.213Z,73.90
2022-12-15T11:10:21.313Z,74.76
2022-12-15T11:12:59.831Z,74.96
2022-12-15T11:15:40.126Z,74.34
2022-12-15T11:18:17.219Z,73.41
2022-12-15T11:20:52.012Z,73.69
2022-12-15T11:23:28.091Z,72.93
2022-12-15T11:26:06.777Z,72.49
2022-12-15T11:28:42.448Z,72.10
2022-12-15T11:31:18.716Z,72.69
2022-12-15T11:33:49.316Z,72.77
2022-12-15T11:36:25.635Z,73.07
2022-12-15T11:39:00.248Z,72.29
2022-12-15T11:41:39.638Z,72.07
2022-12-15T11:44:26.900Z,70.88
2022-12-15T11:47:07.220Z,70.55
2022-12-15T11:49:54.214Z,69.97
2022-12-15T11:52:35.896Z,70.72
2022-12-15T11:55:16.318Z,69.32
2022-12-15T11:58:02.316Z,68.49
2022-12-15T12:00:35.676Z,68.53
2022-12-15T12:03:16.186Z,67.88
2022-12-15T12:05:58.526Z,67.18
2022-12-15T12:09:04.094Z,67.29
2022-12-15T12:11:41.583Z,67.64
2022-12-15T12:14:20.781Z,67.52
2022-12-15T12:16:55.773Z,67.47
2022-12-15T12:19:28.808Z,68.14
2022-12-15T12:22:03.665Z,67.53
2022-12-15T12:24:36.704Z,67.81
2022-12-15T12:27:12.583Z,67.62
2022-12-15T12:29:48.717Z,66.50
2022-12-15T12:32:25.355Z,66.00
2022-12-15T12:35:31.676Z,66.13
2022-12-15T12:38:03.129Z,66.30
2022-12-15T12:40:42.287Z,65.86
2022-12-15T12:43:14.397Z,65.81
2022-12-15T12:45:50.807Z,64.88
2022-12-15T12:48:25.944Z,66.19
2022-12-15T12:51:10.886Z,66.98
2022-12-15T12:53:40.198Z,66.37
2022-12-15T12:56:08.371Z,66.10
2022-12-15T12:58:39.689Z,67.04
2022-12-15T13:01:21.104Z,66.83
2022-12-15T13:04:07.622Z,65.85
2022-12-15T13:06:59.582Z,66.72
2022-12-15T13:09:40.368Z,65.97
2022-12-15T13:12:53.183Z,66.10
2022-12-15T13:15:35.682Z,67.02
2022-12-15T13:18:08.356Z,67.95
2022-12-15T13:20:38.127Z,67.75
2022-12-15T13:23:41.505Z,68.12
2022-12-15T13:26:20.829Z,67.24
2022-12-15T13:28:53.432Z,67.22
2022-12-15T13:31:33.687Z,67.07
2022-12-15T13:34:15.390Z,66.56
2022-12-15T13:37:02.496Z,66.47
2022-12-15T13:39:58.925Z,66.14
2022-12-15T13:42:53.226Z,67.51
2022-12-15T13:45:42.901Z,66.03
2022-12-15T13:48:21.470Z,66.37
2022-12-15T13:50:57.216Z,66.08
2022-12-15T13:53:26.868Z,66.70
2022-12-15T13:56:01.782Z,65.89
2022-12-15T13:58:34.852Z,65.71
2022-12-15T14:01:03.864Z,67.07
2022-12-15T14:03:32.301Z,66.12
2022-12-15T14:06:01.547Z,66.53
2022-12-15T14:08:31.716Z,65.75
2022-12-15T14:11:22.235Z,66.61
2022-12-15T14:13:54.678Z,65.88
2022-12-15T14:16:24.770Z,65.84
2022-12-15T14:19:11.561Z,65.77
2022-12-15T14:21:39.832Z,65.88
2022-12-15T14:24:40.232Z,65.41
2022-12-15T14:27:09.772Z,65.44
2022-12-15T14:29:39.890Z,65.39
2022-12-15T14:32:11.034Z,65.50
2022-12-15T14:34:41.966Z,65.62
2022-12-15T14:37:14.985Z,65.60
2022-12-15T14:39:46.763Z,65.44
2022-12-15T14:42:19.055Z,65.73
2022-12-15T14:44:54.919Z,66.12
2022-12-15T14:47:29.619Z,65.71
2022-12-15T14:50:02.590Z,66.45
2022-12-15T14:52:36.199Z,66.51
2022-12-15T14:55:27.537Z,65.92
2022-12-15T14:57:58.697Z,66.15
2022-12-15T15:00:34.068Z,66.33
2022-12-15T15:05:58.268Z,65.88
2022-12-15T15:08:29.822Z,66.43
2022-12-15T15:11:02.942Z,66.31
2022-12-15T15:13:40.111Z,65.78
2022-12-15T15:16:19.174Z,66.89
2022-12-15T15:18:51.123Z,66.69
2022-12-15T15:21:22.983Z,66.83
2022-12-15T15:24:22.688Z,67.22
2022-12-15T15:26:50.771Z,67.26
2022-12-15T15:29:41.088Z,66.27
2022-12-15T15:32:17.431Z,67.19
2022-12-15T15:34:47.139Z,66.81
2022-12-15T15:37:20.119Z,65.71
2022-12-15T15:39:50.360Z,67.05
2022-12-15T15:42:18.897Z,67.21
2022-12-15T15:44:47.599Z,66.80
2022-12-15T15:47:23.315Z,65.83
2022-12-15T15:49:54.948Z,65.55
2022-12-15T15:52:23.884Z,66.21
2022-12-15T15:54:54.247Z,65.70
2022-12-15T15:57:22.618Z,65.90
2022-12-15T15:59:51.143Z,66.50
2022-12-15T16:02:20.917Z,65.33
2022-12-15T16:04:49.015Z,65.95
2022-12-15T16:07:24.094Z,66.25
2022-12-15T16:09:52.429Z,65.68
2022-12-15T16:12:27.616Z,65.74
2022-12-15T16:14:56.246Z,66.65
2022-12-15T16:17:25.797Z,65.96
2022-12-15T16:19:53.780Z,66.69
2022-12-15T16:22:23.442Z,66.05
2022-12-15T16:24:51.392Z,65.58
2022-12-15T16:27:19.266Z,65.48
2022-12-15T16:29:47.266Z,64.77
2022-12-15T16:32:15.518Z,65.16
2022-12-15T16:34:44.947Z,65.42
2022-12-15T16:37:26.303Z,65.13
2022-12-15T16:39:54.401Z,65.41
2022-12-15T16:42:23.259Z,65.91
2022-12-15T16:44:51.200Z,65.81
2022-12-15T16:47:19.243Z,66.49
2022-12-15T16:49:48.510Z,66.38
2022-12-15T16:52:20.848Z,66.20
2022-12-15T16:54:50.185Z,65.68
2022-12-15T16:57:18.455Z,66.78
2022-12-15T16:59:46.486Z,66.21
2022-12-15T17:02:27.004Z,66.43
2022-12-15T17:04:56.760Z,66.62
2022-12-15T17:07:27.890Z,66.48
2022-12-15T17:09:55.805Z,67.01
2022-12-15T17:12:23.665Z,66.25
2022-12-15T17:14:51.743Z,66.62
2022-12-15T17:17:21.012Z,65.78
2022-12-15T17:22:39.637Z,67.00
2022-12-15T17:25:11.220Z,67.42
2022-12-15T17:27:39.450Z,67.49
2022-12-15T17:30:14.375Z,67.01
2022-12-15T17:32:42.489Z,67.38
2022-12-15T17:35:11.191Z,67.37
2022-12-15T17:37:41.416Z,67.73
2022-12-15T17:40:18.098Z,67.50
2022-12-15T17:42:54.619Z,67.89
2022-12-15T17:45:24.444Z,68.04
2022-12-15T17:47:53.522Z,68.41
2022-12-15T17:50:21.386Z,68.26
2022-12-15T17:52:51.088Z,68.66
2022-12-15T17:55:22.713Z,68.87
2022-12-15T17:57:51.336Z,68.54
2022-12-15T18:00:23.150Z,68.80
2022-12-15T18:02:51.425Z,69.07
2022-12-15T18:05:20.537Z,68.55
2022-12-15T18:07:54.269Z,68.12
2022-12-15T18:10:27.043Z,68.87
2022-12-15T18:12:55.401Z,68.39
2022-12-15T18:15:25.550Z,68.84
2022-12-15T18:17:56.064Z,68.82
2022-12-15T18:20:24.772Z,68.41
2022-12-15T18:22:54.118Z,68.68
2022-12-15T18:25:26.054Z,68.85
2022-12-15T18:27:55.040Z,69.41
2022-12-15T18:30:24.812Z,68.72
2022-12-15T18:32:55.807Z,68.81
2022-12-15T18:35:29.858Z,69.53
2022-12-15T18:37:59.508Z,69.29
2022-12-15T18:40:30.789Z,68.96
2022-12-15T18:42:59.050Z,69.32
2022-12-15T18:45:28.359Z,69.36
2022-12-15T18:47:56.376Z,69.53
2022-12-15T18:50:26.897Z,69.32
2022-12-15T18:52:59.665Z,70.00
2022-12-15T18:55:31.123Z,70.19
2022-12-15T18:58:00.743Z,70.48
2022-12-15T19:00:30.563Z,70.37
2022-12-15T19:03:00.969Z,70.03
2022-12-15T19:05:32.585Z,70.70
2022-12-15T19:08:08.315Z,70.42
2022-12-15T19:10:41.285Z,70.50
2022-12-15T19:13:16.672Z,70.00
2022-12-15T19:15:45.176Z,70.18
2022-12-15T19:18:33.451Z,70.21
2022-12-15T19:21:28.945Z,70.40
2022-12-15T19:23:58.503Z,70.19
2022-12-15T19:26:26.638Z,70.15
2022-12-15T19:28:54.920Z,69.86
2022-12-15T19:31:23.029Z,70.42
2022-12-15T19:33:56.994Z,70.46
2022-12-15T19:36:25.669Z,70.87
2022-12-15T19:38:58.880Z,70.15
2022-12-15T19:41:27.651Z,69.97
2022-12-15T19:43:55.621Z,70.24
2022-12-15T19:46:24.043Z,70.96
2022-12-15T19:48:52.084Z,70.33
2022-12-15T19:51:23.151Z,70.97
2022-12-15T19:53:52.005Z,71.01
2022-12-15T19:56:23.687Z,70.28
2022-12-15T19:58:52.093Z,70.42
2022-12-15T20:01:21.286Z,71.10
2022-12-15T20:03:50.969Z,69.89
2022-12-15T20:06:21.381Z,69.67
2022-12-15T20:08:54.665Z,70.53
2022-12-15T20:11:26.647Z,70.11
2022-12-15T20:13:56.142Z,70.34
2022-12-15T20:16:24.889Z,70.42
2022-12-15T20:18:54.791Z,70.43
2022-12-15T20:21:27.521Z,70.63
2022-12-15T20:24:00.550Z,70.39
2022-12-15T20:26:33.160Z,70.63
2022-12-15T20:29:01.466Z,70.30
2022-12-15T20:31:29.536Z,69.87
2022-12-15T20:33:57.502Z,70.52
2022-12-15T20:36:30.703Z,68.67
2022-12-15T20:38:59.243Z,69.95
2022-12-15T20:41:28.911Z,69.90
2022-12-15T20:43:59.021Z,70.15
2022-12-15T20:46:30.225Z,69.83
2022-12-15T20:48:58.306Z,69.33
2022-12-15T20:51:28.057Z,70.28
2022-12-15T20:53:58.233Z,69.68
2022-12-15T20:56:27.555Z,70.97
2022-12-15T20:58:56.995Z,71.36
2022-12-15T21:01:32.003Z,70.87
2022-12-15T21:04:02.029Z,70.38
2022-12-15T21:06:31.628Z,70.99
2022-12-15T21:08:59.487Z,71.11
2022-12-15T21:11:29.758Z,71.22
2022-12-15T21:14:04.019Z,70.71
2022-12-15T21:16:35.584Z,71.11
2022-12-15T21:19:19.952Z,71.24
2022-12-15T21:21:52.244Z,71.29
2022-12-15T21:24:25.838Z,71.98
2022-12-15T21:26:54.998Z,71.67
2022-12-15T21:29:25.252Z,71.11
2022-12-15T21:31:54.775Z,71.38
2022-12-15T21:34:23.974Z,71.64
2022-12-15T21:36:55.105Z,71.06
2022-12-15T21:39:29.264Z,71.30
2022-12-15T21:41:59.219Z,71.61
2022-12-15T21:44:27.061Z,71.79
2022-12-15T21:46:56.360Z,71.16
2022-12-15T21:49:24.389Z,70.96
2022-12-15T21:51:54.878Z,71.51
2022-12-15T21:54:30.615Z,70.91
2022-12-15T21:57:00.007Z,70.50
2022-12-15T21:59:30.781Z,70.75
2022-12-15T22:02:00.935Z,71.13
2022-12-15T22:04:31.915Z,70.80
2022-12-15T22:06:59.849Z,72.18
2022-12-15T22:09:27.885Z,71.95
2022-12-15T22:11:57.614Z,72.22
2022-12-15T22:14:27.335Z,72.05
2022-12-15T22:16:55.678Z,71.86
2022-12-15T22:19:25.601Z,71.59
2022-12-15T22:21:53.630Z,71.67
2022-12-15T22:24:21.648Z,73.13
2022-12-15T22:26:50.024Z,71.97
2022-12-15T22:29:20.405Z,72.92
2022-12-15T22:31:49.512Z,72.15
2022-12-15T22:34:20.936Z,72.34
2022-12-15T22:36:50.773Z,72.68
2022-12-15T22:39:20.358Z,72.40
2022-12-15T22:41:50.430Z,72.21
2022-12-15T22:44:21.634Z,72.58
2022-12-15T22:46:50.985Z,72.68
2022-12-15T22:49:21.576Z,71.87
2022-12-15T22:51:51.411Z,72.38
2022-12-15T22:54:20.864Z,71.89
2022-12-15T22:56:51.781Z,72.71
2022-12-15T22:59:25.931Z,72.16
2022-12-15T23:01:54.156Z,72.82
2022-12-15T23:04:23.120Z,72.67
2022-12-15T23:06:52.540Z,72.40
2022-12-15T23:11:41.986Z,72.30
2022-12-15T23:14:12.206Z,72.30
2022-12-15T23:16:39.607Z,72.24
2022-12-15T23:19:09.042Z,72.71
2022-12-15T23:21:37.764Z,71.89
2022-12-15T23:24:05.894Z,71.83
2022-12-15T23:26:34.135Z,72.10
2022-12-15T23:29:03.885Z,72.17
2022-12-15T23:31:32.087Z,72.18
2022-12-15T23:34:00.400Z,71.18
2022-12-15T23:36:28.386Z,70.77
2022-12-15T23:38:57.848Z,71.81
2022-12-15T23:41:26.134Z,71.82
2022-12-15T23:43:54.208Z,71.86
2022-12-15T23:46:23.861Z,71.53
2022-12-15T23:48:51.871Z,71.99
2022-12-15T23:51:21.022Z,72.00
2022-12-15T23:53:49.434Z,71.27
2022-12-15T23:56:19.568Z,71.63
2022-12-15T23:58:49.609Z,71.24
